Time;durP1;ratioP1;P1;durP2;ratioP2;P2;SDS_P1;SDS_P2;PMS_P1;PMS_P2;Temp;Humidity;BMP_temperature;BMP_pressure;BME280_temperature;BME280_humidity;BME280_pressure;Samples;Min_cycle;Max_cycle;Signal;HPM_P1;HPM_P2
2021/08/27 00:01:13;;;;;;;1.15;0.73;;;16.40;60.50;;;;;;4131481;28;20065;-44
2021/08/27 00:03:15;;;;;;;0.90;0.60;;;16.80;60.00;;;;;;4125340;28;20376;-42
2021/08/27 00:05:17;;;;;;;0.40;0.40;;;17.30;59.40;;;;;;4137207;28;20042;-44
2021/08/27 00:07:22;;;;;;;0.75;0.40;;;17.70;59.20;;;;;;4131990;28;20036;-42
2021/08/27 00:09:24;;;;;;;0.45;0.45;;;18.10;57.80;;;;;;4131880;28;20076;-43
2021/08/27 00:11:27;;;;;;;0.98;0.50;;;18.40;57.20;;;;;;4131024;28;20470;-41
2021/08/27 00:13:29;;;;;;;1.55;0.70;;;;;;;;;;4133844;28;20061;-45
2021/08/27 00:15:31;;;;;;;0.75;0.70;;;;;;;;;;4135803;28;20356;-45
2021/08/27 00:17:33;;;;;;;2.28;0.70;;;;;;;;;;4134025;28;20083;-45
2021/08/27 00:19:35;;;;;;;1.02;0.70;;;;;;;;;;4131400;28;20022;-43
2021/08/27 00:21:38;;;;;;;2.22;0.70;;;;;;;;;;4134242;28;20101;-45
2021/08/27 00:23:39;;;;;;;2.85;1.00;;;;;;;;;;4133591;28;20140;-46
2021/08/27 00:25:41;;;;;;;2.92;0.70;;;;;;;;;;4135977;28;20141;-45
2021/08/27 00:27:43;;;;;;;1.98;0.80;;;;;;;;;;4136548;28;20026;-43
2021/08/27 00:29:46;;;;;;;1.88;0.90;;;;;;;;;;4135372;28;20116;-48
2021/08/27 00:31:48;;;;;;;2.45;1.10;;;;;;;;;;4131031;28;20497;-46
2021/08/27 00:33:51;;;;;;;2.47;1.05;;;;;;;;;;4131959;28;20158;-48
2021/08/27 00:35:53;;;;;;;2.33;0.98;;;;;;;;;;4130024;28;20029;-45
2021/08/27 00:37:55;;;;;;;1.48;0.95;;;;;;;;;;4134470;28;20125;-48
2021/08/27 00:39:57;;;;;;;1.80;1.10;;;;;;;;;;4132197;28;20040;-44
2021/08/27 00:41:59;;;;;;;2.33;1.00;;;;;;;;;;4135835;28;20081;-43
2021/08/27 00:44:01;;;;;;;2.25;0.90;;;;;;;;;;4135450;28;20124;-42
2021/08/27 00:46:03;;;;;;;1.48;0.93;;;;;;;;;;4131918;28;20037;-47
2021/08/27 00:48:05;;;;;;;1.85;1.02;;;;;;;;;;4133752;28;20021;-42
2021/08/27 00:50:08;;;;;;;2.15;1.08;;;;;;;;;;4135188;28;20032;-43
2021/08/27 00:52:10;;;;;;;0.95;0.60;;;;;;;;;;4133651;28;20490;-43
2021/08/27 00:54:12;;;;;;;1.90;1.00;;;;;;;;;;4136684;28;20037;-45
2021/08/27 00:56:15;;;;;;;0.93;0.63;;;18.70;56.30;;;;;;4136786;28;20101;-47
2021/08/27 00:58:17;;;;;;;1.90;0.90;;;23.30;48.40;;;;;;4133739;28;20096;-48
2021/08/27 01:00:20;;;;;;;2.15;0.82;;;23.40;48.20;;;;;;4134154;28;20102;-50
2021/08/27 01:02:22;;;;;;;1.52;0.82;;;23.50;47.90;;;;;;4133954;28;20030;-50
2021/08/27 01:04:24;;;;;;;1.48;0.82;;;23.60;47.30;;;;;;4134690;28;20061;-47
2021/08/27 01:06:36;;;;;;;2.50;0.98;;;23.50;46.10;;;;;;4128480;28;20052;-45
2021/08/27 01:08:57;;;;;;;2.50;0.73;;;23.30;46.60;;;;;;4135382;28;20036;-47
2021/08/27 01:11:41;;;;;;;1.25;0.73;;;23.00;47.60;;;;;;4133444;28;20519;-44
2021/08/27 01:14:08;;;;;;;3.55;1.30;;;22.70;48.80;;;;;;4092254;28;20042;-44
2021/08/27 01:16:26;;;;;;;2.97;1.10;;;22.50;49.60;;;;;;4135396;28;20479;-47
2021/08/27 01:18:51;;;;;;;1.20;0.88;;;22.30;50.10;;;;;;4129559;28;20026;-44
2021/08/27 01:21:05;;;;;;;4.45;0.80;;;22.20;50.00;;;;;;4136458;28;20030;-45
2021/08/27 01:23:21;;;;;;;1.65;1.00;;;22.00;50.50;;;;;;4132085;28;20060;-45
2021/08/27 01:25:24;;;;;;;2.97;1.40;;;;;;;;;;4130287;28;20476;-43
2021/08/27 01:27:26;;;;;;;2.83;1.70;;;;;;;;;;4132967;28;20033;-43
2021/08/27 01:29:48;;;;;;;2.03;1.30;;;;;;;;;;4130386;28;20029;-45
2021/08/27 01:31:55;;;;;;;2.08;1.10;;;;;;;;;;4132624;28;20030;-44
2021/08/27 01:34:29;;;;;;;2.22;1.20;;;21.90;50.50;;;;;;4132957;28;20026;-44
2021/08/27 01:36:33;;;;;;;1.92;0.93;;;21.20;45.70;;;;;;4133957;28;20100;-44
2021/08/27 01:38:38;;;;;;;2.08;1.10;;;21.00;45.20;;;;;;4130993;28;20526;-43
2021/08/27 01:40:44;;;;;;;3.95;1.02;;;20.80;45.80;;;;;;4121829;28;20029;-44
2021/08/27 01:42:47;;;;;;;2.63;0.85;;;20.70;47.20;;;;;;4122563;28;20088;-46
2021/08/27 01:44:51;;;;;;;0.80;0.70;;;20.60;47.90;;;;;;4136204;28;20045;-46
2021/08/27 01:46:59;;;;;;;2.30;0.90;;;20.60;48.20;;;;;;4133422;28;20037;-44
2021/08/27 01:49:06;;;;;;;1.42;0.88;;;20.50;49.00;;;;;;4135440;28;20046;-44
2021/08/27 01:51:09;;;;;;;1.17;0.60;;;20.50;49.30;;;;;;4130085;28;20041;-45
2021/08/27 01:53:12;;;;;;;2.75;0.95;;;20.40;49.40;;;;;;4129347;28;20581;-47
2021/08/27 01:55:15;;;;;;;0.75;0.65;;;20.40;50.30;;;;;;4128724;28;20050;-45
2021/08/27 01:57:18;;;;;;;3.33;1.30;;;20.40;50.20;;;;;;4132859;28;20128;-47
2021/08/27 01:59:21;;;;;;;2.95;1.52;;;20.40;50.40;;;;;;4130653;28;20052;-49
2021/08/27 02:01:24;;;;;;;;;;;20.40;51.00;;;;;;4132848;28;20034;-46
2021/08/27 02:03:28;;;;;;;4.32;1.23;;;20.40;50.90;;;;;;4130004;28;20417;-47
2021/08/27 02:05:31;;;;;;;2.90;1.15;;;20.40;51.00;;;;;;4128882;28;20045;-51
2021/08/27 02:07:33;;;;;;;2.85;1.30;;;20.30;51.30;;;;;;4129675;28;20105;-49
2021/08/27 02:09:38;;;;;;;2.72;1.00;;;20.30;51.30;;;;;;4130508;28;20527;-52
2021/08/27 02:11:40;;;;;;;1.90;1.05;;;20.30;51.10;;;;;;4131642;28;20522;-49
2021/08/27 02:13:44;;;;;;;1.55;0.82;;;20.30;51.20;;;;;;4131224;28;20026;-46
2021/08/27 02:15:49;;;;;;;2.45;1.15;;;20.30;51.10;;;;;;4135215;28;20652;-43
2021/08/27 02:17:52;;;;;;;2.15;1.00;;;20.30;51.20;;;;;;4130933;28;20037;-44
2021/08/27 02:19:55;;;;;;;1.70;1.00;;;20.30;51.10;;;;;;4128391;28;20029;-48
2021/08/27 02:21:58;;;;;;;0.90;0.70;;;20.30;51.20;;;;;;4129050;28;20487;-47
2021/08/27 02:24:02;;;;;;;1.00;0.90;;;20.30;51.30;;;;;;4132874;28;20046;-47
2021/08/27 02:26:05;;;;;;;1.40;0.80;;;20.30;51.30;;;;;;4134096;28;20119;-49
2021/08/27 02:28:07;;;;;;;0.60;0.60;;;20.30;51.20;;;;;;4129419;28;20633;-46
2021/08/27 02:30:10;;;;;;;1.50;0.70;;;20.20;51.20;;;;;;4130076;28;20061;-51
2021/08/27 02:32:13;;;;;;;1.23;1.00;;;20.20;51.00;;;;;;4133264;28;20443;-47
2021/08/27 02:34:17;;;;;;;0.80;0.70;;;20.20;50.90;;;;;;4129469;28;20453;-46
2021/08/27 02:36:20;;;;;;;1.58;0.88;;;20.20;50.80;;;;;;4128374;28;20045;-46
2021/08/27 02:38:23;;;;;;;;;;;20.20;51.00;;;;;;4135933;28;20041;-46
2021/08/27 02:40:25;;;;;;;2.10;0.80;;;20.20;51.00;;;;;;4131569;28;19996;-46
2021/08/27 02:42:30;;;;;;;0.97;0.70;;;20.10;50.90;;;;;;4128827;28;20255;-46
2021/08/27 02:44:32;;;;;;;1.00;0.70;;;20.20;50.80;;;;;;4133517;28;20038;-47
2021/08/27 02:46:34;;;;;;;1.48;0.70;;;20.10;50.70;;;;;;4131060;28;20034;-49
2021/08/27 02:48:36;;;;;;;0.60;0.60;;;20.10;50.30;;;;;;4130998;28;20064;-45
2021/08/27 02:51:03;;;;;;;0.60;0.60;;;20.10;50.40;;;;;;4126832;28;20041;-47
2021/08/27 02:53:36;;;;;;;1.38;0.90;;;20.10;50.50;;;;;;4130096;28;20041;-47
2021/08/27 02:55:45;;;;;;;0.60;0.60;;;20.10;50.70;;;;;;4126831;28;20526;-47
2021/08/27 02:58:05;;;;;;;1.23;0.80;;;20.00;50.60;;;;;;4132693;28;20443;-46
2021/08/27 03:00:08;;;;;;;0.85;0.70;;;20.00;50.80;;;;;;4133458;28;20033;-46
2021/08/27 03:02:15;;;;;;;0.63;0.52;;;20.00;50.60;;;;;;4130812;28;20030;-47
2021/08/27 03:04:42;;;;;;;1.58;0.60;;;20.00;50.60;;;;;;4136510;28;20542;-46
2021/08/27 03:06:52;;;;;;;0.75;0.57;;;20.00;51.30;;;;;;4134450;28;20029;-43
2021/08/27 03:09:04;;;;;;;1.00;0.55;;;20.00;50.90;;;;;;4133704;28;20566;-48
2021/08/27 03:11:23;;;;;;;0.93;0.75;;;20.00;50.70;;;;;;4136357;28;20041;-48
2021/08/27 03:13:31;;;;;;;3.97;0.70;;;20.00;50.70;;;;;;4128200;28;20042;-47
2021/08/27 03:16:03;;;;;;;0.50;0.47;;;20.00;50.40;;;;;;4132914;28;20576;-45
2021/08/27 03:18:20;;;;;;;0.90;0.70;;;20.00;50.20;;;;;;4135330;28;20144;-48
2021/08/27 03:20:27;;;;;;;0.55;0.55;;;20.00;49.70;;;;;;4134545;28;20045;-47
2021/08/27 03:22:52;;;;;;;0.65;0.65;;;19.90;49.70;;;;;;4133089;28;20033;-45
2021/08/27 03:25:07;;;;;;;1.85;0.60;;;19.90;49.30;;;;;;4135883;28;20453;-44
2021/08/27 03:27:16;;;;;;;1.08;0.65;;;19.80;49.10;;;;;;4119242;28;21712;-44
2021/08/27 03:29:21;;;;;;;0.70;0.60;;;19.80;48.90;;;;;;4133672;28;20369;-51
2021/08/27 03:31:25;;;;;;;0.40;0.40;;;19.80;49.00;;;;;;4127307;28;20407;-43
2021/08/27 03:33:28;;;;;;;0.55;0.55;;;19.80;49.20;;;;;;4130703;28;20491;-43
2021/08/27 03:35:31;;;;;;;0.30;0.30;;;19.80;49.30;;;;;;4127603;28;20140;-43
2021/08/27 03:37:35;;;;;;;0.50;0.50;;;19.80;49.40;;;;;;4128679;28;20026;-47
2021/08/27 03:39:37;;;;;;;;;;;19.90;49.50;;;;;;4129948;28;20077;-45
2021/08/27 03:41:41;;;;;;;0.82;0.60;;;19.90;49.30;;;;;;4131820;28;19917;-48
2021/08/27 03:43:45;;;;;;;0.50;0.50;;;19.90;49.40;;;;;;4132701;28;20025;-43
2021/08/27 03:45:50;;;;;;;0.50;0.50;;;19.90;49.50;;;;;;4133726;28;20061;-42
2021/08/27 03:47:53;;;;;;;0.40;0.40;;;19.90;49.60;;;;;;4132649;28;20089;-46
2021/08/27 03:49:55;;;;;;;0.40;0.40;;;19.90;49.70;;;;;;4134211;28;20026;-43
2021/08/27 03:51:59;;;;;;;0.40;0.40;;;19.90;49.80;;;;;;4133459;28;20053;-41
2021/08/27 03:54:02;;;;;;;0.57;0.40;;;20.00;49.90;;;;;;4134517;28;20030;-43
2021/08/27 03:56:05;;;;;;;0.50;0.50;;;19.90;49.90;;;;;;4133735;28;20459;-44
2021/08/27 03:58:11;;;;;;;0.77;0.55;;;20.00;50.00;;;;;;4132366;28;20030;-44
2021/08/27 04:00:14;;;;;;;0.75;0.60;;;20.00;50.00;;;;;;4128348;28;20452;-46
2021/08/27 04:02:16;;;;;;;0.60;0.43;;;20.00;50.00;;;;;;4135537;28;20119;-42
2021/08/27 04:04:22;;;;;;;0.30;0.30;;;20.10;50.10;;;;;;4132973;28;20173;-45
2021/08/27 04:06:24;;;;;;;0.30;0.30;;;20.10;50.70;;;;;;4132821;28;20322;-48
2021/08/27 04:08:27;;;;;;;0.70;0.50;;;20.20;50.00;;;;;;4132617;28;20502;-46
2021/08/27 04:10:29;;;;;;;0.50;0.50;;;20.20;50.00;;;;;;4128485;28;20029;-46
2021/08/27 04:12:31;;;;;;;0.52;0.52;;;20.20;49.30;;;;;;4134819;28;20066;-43
2021/08/27 04:14:34;;;;;;;0.55;0.55;;;20.20;47.50;;;;;;4133151;28;20061;-45
2021/08/27 04:16:42;;;;;;;1.50;0.50;;;20.20;46.40;;;;;;4133857;28;20033;-43
2021/08/27 04:18:44;;;;;;;0.70;0.70;;;20.10;46.20;;;;;;4130794;28;20049;-45
2021/08/27 04:20:46;;;;;;;1.55;0.65;;;20.00;46.10;;;;;;4121310;28;20515;-46
2021/08/27 04:22:49;;;;;;;0.60;0.60;;;20.00;45.40;;;;;;4124962;28;20383;-46
2021/08/27 04:24:51;;;;;;;0.73;0.70;;;19.90;45.20;;;;;;4039235;28;2593937;-43
2021/08/27 04:26:53;;;;;;;0.35;0.35;;;19.90;45.30;;;;;;4132447;28;20076;-42
2021/08/27 04:28:55;;;;;;;0.88;0.70;;;19.90;45.50;;;;;;4117279;28;20494;-48
2021/08/27 04:30:57;;;;;;;0.75;0.60;;;19.80;45.30;;;;;;4121191;28;20401;-46
2021/08/27 04:33:00;;;;;;;0.82;0.65;;;19.80;45.10;;;;;;4127678;28;20029;-47
2021/08/27 04:35:04;;;;;;;0.45;0.45;;;19.80;45.30;;;;;;4127493;28;20042;-44
2021/08/27 04:37:06;;;;;;;0.63;0.60;;;19.70;45.20;;;;;;4133342;28;20034;-42
2021/08/27 04:39:08;;;;;;;0.70;0.70;;;19.70;45.30;;;;;;4134995;28;20025;-45
2021/08/27 04:41:10;;;;;;;0.55;0.55;;;19.60;45.00;;;;;;4137550;28;20268;-43
2021/08/27 04:43:12;;;;;;;0.88;0.60;;;19.60;45.30;;;;;;4138846;28;20033;-50
2021/08/27 04:45:15;;;;;;;1.20;0.73;;;19.60;45.30;;;;;;4136027;28;20045;-44
2021/08/27 04:47:17;;;;;;;0.43;0.43;;;19.50;45.40;;;;;;4110945;28;20022;-45
2021/08/27 04:49:19;;;;;;;0.60;0.60;;;19.50;45.20;;;;;;4137661;28;20037;-46
2021/08/27 04:51:21;;;;;;;0.77;0.63;;;19.50;45.50;;;;;;4136827;28;20053;-45
2021/08/27 04:53:23;;;;;;;2.92;0.70;;;19.40;45.00;;;;;;4138325;28;20058;-43
2021/08/27 04:55:25;;;;;;;0.70;0.50;;;19.40;45.40;;;;;;4135901;28;20029;-46
2021/08/27 04:57:29;;;;;;;0.75;0.75;;;19.40;45.50;;;;;;4135134;28;20041;-44
2021/08/27 04:59:31;;;;;;;0.60;0.60;;;19.30;45.00;;;;;;4132764;28;20144;-44
2021/08/27 05:01:33;;;;;;;0.40;0.40;;;19.30;45.00;;;;;;4136224;28;20120;-43
2021/08/27 05:03:36;;;;;;;0.70;0.70;;;19.30;45.10;;;;;;4138687;28;20025;-43
2021/08/27 05:05:38;;;;;;;0.55;0.50;;;19.20;45.00;;;;;;4135959;28;20085;-48
2021/08/27 05:07:40;;;;;;;0.93;0.88;;;19.20;44.90;;;;;;4135876;28;20026;-43
2021/08/27 05:09:43;;;;;;;0.60;0.60;;;19.20;45.00;;;;;;4136149;28;20079;-45
2021/08/27 05:11:45;;;;;;;1.30;0.70;;;19.10;45.30;;;;;;4133476;28;20029;-43
2021/08/27 05:13:47;;;;;;;0.60;0.60;;;19.10;44.90;;;;;;4139097;28;20663;-46
2021/08/27 05:15:49;;;;;;;1.52;0.70;;;19.10;45.30;;;;;;4135940;28;20354;-46
2021/08/27 05:17:51;;;;;;;0.68;0.68;;;19.10;45.20;;;;;;4136658;28;20512;-47
2021/08/27 05:19:53;;;;;;;0.73;0.60;;;19.10;45.10;;;;;;4135740;28;20022;-45
2021/08/27 05:21:55;;;;;;;0.98;0.70;;;19.00;45.30;;;;;;4127014;28;20064;-49
2021/08/27 05:23:58;;;;;;;0.95;0.57;;;19.00;45.30;;;;;;4134078;28;20530;-44
2021/08/27 05:26:00;;;;;;;0.73;0.70;;;19.00;45.30;;;;;;4141268;28;20046;-44
2021/08/27 05:28:02;;;;;;;2.20;0.80;;;18.90;45.30;;;;;;4140286;28;20029;-47
2021/08/27 05:30:09;;;;;;;0.50;0.50;;;18.90;45.50;;;;;;4135834;28;20514;-44
2021/08/27 05:32:11;;;;;;;0.60;0.50;;;18.90;45.50;;;;;;4140231;28;20462;-45
2021/08/27 05:34:14;;;;;;;0.77;0.77;;;18.90;45.70;;;;;;4138809;28;20034;-46
2021/08/27 05:36:16;;;;;;;2.45;0.60;;;18.90;45.90;;;;;;4130658;28;20168;-42
2021/08/27 05:38:18;;;;;;;2.28;1.00;;;18.90;47.00;;;;;;4129219;28;20056;-42
2021/08/27 05:40:20;;;;;;;1.10;0.70;;;18.90;48.20;;;;;;4137104;28;20365;-43
2021/08/27 05:42:22;;;;;;;1.70;0.60;;;18.90;49.00;;;;;;4138254;28;20029;-45
2021/08/27 05:44:24;;;;;;;0.60;0.60;;;19.00;49.60;;;;;;4131550;28;20442;-46
2021/08/27 05:46:26;;;;;;;0.50;0.50;;;19.00;50.00;;;;;;4134498;28;20032;-46
2021/08/27 05:48:28;;;;;;;2.38;0.85;;;19.10;50.20;;;;;;4139627;28;20029;-43
2021/08/27 05:50:31;;;;;;;1.10;0.73;;;19.10;50.50;;;;;;4134151;28;20034;-46
2021/08/27 05:52:33;;;;;;;0.80;0.60;;;19.10;50.60;;;;;;4137171;28;20022;-43
2021/08/27 05:54:35;;;;;;;0.70;0.57;;;19.20;50.90;;;;;;4133820;28;20029;-43
2021/08/27 05:56:37;;;;;;;0.85;0.70;;;19.20;51.10;;;;;;4132460;28;20041;-47
2021/08/27 05:58:39;;;;;;;0.60;0.60;;;19.20;51.20;;;;;;4133650;28;20033;-46
2021/08/27 06:00:42;;;;;;;1.73;0.80;;;19.20;51.30;;;;;;4130712;28;20128;-48
2021/08/27 06:02:45;;;;;;;4.90;0.93;;;19.30;51.40;;;;;;4133508;28;20447;-48
2021/08/27 06:04:48;;;;;;;0.85;0.57;;;19.30;51.50;;;;;;4134581;28;20137;-43
2021/08/27 06:06:53;;;;;;;0.60;0.60;;;19.30;51.70;;;;;;4109510;28;20022;-44
2021/08/27 06:08:55;;;;;;;1.52;0.80;;;19.30;51.80;;;;;;4129074;28;20034;-48
2021/08/27 06:10:57;;;;;;;4.10;0.70;;;19.30;51.80;;;;;;4125649;28;20041;-46
2021/08/27 06:12:59;;;;;;;1.02;0.50;;;19.40;52.00;;;;;;4128387;28;20030;-47
2021/08/27 06:15:02;;;;;;;1.05;0.68;;;19.40;51.90;;;;;;4126099;28;20533;-48
2021/08/27 06:17:04;;;;;;;1.13;0.68;;;19.40;52.00;;;;;;4125961;28;20065;-44
2021/08/27 06:19:06;;;;;;;0.60;0.60;;;19.40;52.10;;;;;;4120868;28;20061;-48
2021/08/27 06:21:08;;;;;;;1.88;0.90;;;19.50;52.40;;;;;;4123571;28;20545;-49
2021/08/27 06:23:11;;;;;;;3.10;0.90;;;19.50;52.30;;;;;;4121568;28;20029;-47
2021/08/27 06:25:13;;;;;;;0.80;0.75;;;19.50;52.40;;;;;;4120581;28;20096;-45
2021/08/27 06:27:15;;;;;;;1.58;1.17;;;19.50;52.40;;;;;;4124095;28;20088;-49
2021/08/27 06:29:18;;;;;;;2.05;1.27;;;19.50;52.30;;;;;;4122042;28;20056;-46
2021/08/27 06:31:20;;;;;;;2.47;1.70;;;19.50;52.40;;;;;;4119687;28;20037;-50
2021/08/27 06:33:22;;;;;;;4.37;2.97;;;19.50;52.40;;;;;;4122288;28;20073;-46
2021/08/27 06:35:25;;;;;;;4.88;4.38;;;19.50;52.40;;;;;;4124515;28;20037;-49
2021/08/27 06:39:47;;;;;;;6.50;5.90;;;19.60;52.60;;;;;;4127095;28;20049;-46
2021/08/27 06:41:50;;;;;;;6.50;5.90;;;19.70;52.80;;;;;;4105571;28;20248;-46
2021/08/27 06:43:52;;;;;;;6.90;6.30;;;19.70;52.70;;;;;;4132448;28;20452;-45
2021/08/27 06:45:56;;;;;;;7.05;6.45;;;19.70;52.90;;;;;;4127707;28;20470;-45
2021/08/27 06:47:58;;;;;;;7.07;6.47;;;19.70;52.90;;;;;;4123349;28;20133;-49
2021/08/27 06:50:00;;;;;;;7.20;6.47;;;19.70;52.80;;;;;;4130581;28;20069;-50
2021/08/27 06:52:02;;;;;;;7.18;6.57;;;19.70;52.90;;;;;;4127145;28;20140;-47
2021/08/27 06:54:04;;;;;;;6.95;6.35;;;19.80;52.90;;;;;;4122794;28;20407;-44
2021/08/27 06:56:06;;;;;;;8.55;7.50;;;19.70;52.90;;;;;;4117658;28;20064;-44
2021/08/27 06:58:09;;;;;;;13.77;12.75;;;19.80;52.90;;;;;;4123322;28;20030;-47
2021/08/27 07:00:12;;;;;;;16.10;15.00;;;19.80;52.80;;;;;;4129907;28;20155;-49
2021/08/27 07:02:14;;;;;;;30.88;28.63;;;19.80;53.00;;;;;;4128061;28;20448;-52
2021/08/27 07:04:16;;;;;;;39.33;36.75;;;19.80;52.80;;;;;;4125573;28;20046;-47
2021/08/27 07:06:18;;;;;;;39.85;37.38;;;19.80;53.20;;;;;;4126633;28;20099;-48
2021/08/27 07:08:20;;;;;;;38.33;35.90;;;19.80;53.30;;;;;;4124701;28;20609;-46
2021/08/27 07:10:23;;;;;;;40.43;37.87;;;19.80;53.40;;;;;;4126897;28;20409;-50
2021/08/27 07:12:25;;;;;;;40.17;37.77;;;19.80;53.40;;;;;;4126576;28;20305;-47
2021/08/27 07:14:28;;;;;;;40.20;37.60;;;19.80;53.50;;;;;;4131303;28;20104;-49
2021/08/27 07:16:30;;;;;;;39.00;36.40;;;19.80;53.50;;;;;;4124535;28;20731;-50
2021/08/27 07:18:32;;;;;;;36.08;33.88;;;19.80;53.60;;;;;;4127186;28;20034;-47
2021/08/27 07:20:35;;;;;;;35.53;33.33;;;19.80;53.50;;;;;;4121893;28;20479;-52
2021/08/27 07:22:38;;;;;;;35.97;33.65;;;19.80;53.50;;;;;;4124639;28;20030;-50
2021/08/27 07:24:40;;;;;;;35.03;32.72;;;19.80;53.60;;;;;;4130022;28;20061;-47
2021/08/27 07:26:42;;;;;;;37.03;34.53;;;19.90;53.70;;;;;;4126093;28;20033;-47
2021/08/27 07:28:44;;;;;;;35.60;33.15;;;19.90;53.80;;;;;;4124756;28;20027;-50
2021/08/27 07:30:46;;;;;;;37.75;35.17;;;19.90;53.90;;;;;;4131206;28;20327;-49
2021/08/27 07:32:48;;;;;;;38.22;35.40;;;19.90;53.70;;;;;;4135793;28;20486;-47
2021/08/27 07:34:50;;;;;;;37.00;34.40;;;19.90;53.40;;;;;;4130052;28;20025;-50
2021/08/27 07:36:52;;;;;;;37.78;34.88;;;19.80;53.20;;;;;;4135715;28;20482;-47
2021/08/27 07:38:54;;;;;;;36.40;33.72;;;19.80;53.10;;;;;;4130938;28;20207;-45
2021/08/27 07:40:57;;;;;;;35.00;32.45;;;19.80;53.10;;;;;;4138182;28;20264;-52
2021/08/27 07:43:01;;;;;;;36.63;33.90;;;19.80;52.90;;;;;;4129393;28;20240;-46
2021/08/27 07:45:04;;;;;;;34.33;31.88;;;19.80;52.90;;;;;;4131284;28;20388;-44
2021/08/27 07:47:07;;;;;;;33.85;31.35;;;19.80;52.80;;;;;;4131516;28;20034;-48
2021/08/27 07:49:09;;;;;;;33.70;31.15;;;19.70;52.70;;;;;;4131064;28;20659;-45
2021/08/27 07:51:11;;;;;;;33.05;30.63;;;19.70;52.80;;;;;;4131232;28;20139;-45
2021/08/27 07:53:13;;;;;;;32.17;29.80;;;19.70;52.80;;;;;;4135375;28;20022;-47
2021/08/27 07:55:15;;;;;;;31.83;29.35;;;19.60;52.70;;;;;;4131920;28;20029;-46
2021/08/27 07:57:17;;;;;;;31.50;28.95;;;19.60;52.60;;;;;;4134794;28;20100;-44
2021/08/27 07:59:19;;;;;;;30.13;27.95;;;19.60;52.70;;;;;;4137483;28;20483;-48
2021/08/27 08:01:22;;;;;;;30.27;27.90;;;19.60;52.60;;;;;;4135124;28;20399;-45
2021/08/27 08:03:24;;;;;;;30.50;28.10;;;19.50;52.50;;;;;;4138267;28;20022;-49
2021/08/27 08:05:26;;;;;;;30.63;28.35;;;19.60;52.70;;;;;;4135677;28;20041;-50
2021/08/27 08:07:28;;;;;;;25.98;24.08;;;19.50;52.50;;;;;;4131191;28;20045;-52
2021/08/27 08:09:30;;;;;;;25.15;22.77;;;19.50;52.70;;;;;;4133952;28;20265;-49
2021/08/27 08:11:33;;;;;;;22.77;21.02;;;19.50;52.90;;;;;;4135048;28;20022;-50
2021/08/27 08:13:35;;;;;;;21.98;20.17;;;19.40;53.10;;;;;;4135729;28;20021;-49
2021/08/27 08:15:38;;;;;;;19.13;17.73;;;19.50;53.10;;;;;;4121007;28;20132;-46
2021/08/27 08:17:40;;;;;;;18.20;16.80;;;19.50;53.30;;;;;;4135196;28;20096;-43
2021/08/27 08:19:42;;;;;;;17.13;15.75;;;19.50;53.40;;;;;;4133517;28;20029;-50
2021/08/27 08:21:45;;;;;;;15.60;14.40;;;19.40;53.40;;;;;;4134245;28;20026;-47
2021/08/27 08:23:47;;;;;;;14.38;13.27;;;19.40;53.50;;;;;;4134894;28;20455;-50
2021/08/27 08:25:49;;;;;;;13.23;12.23;;;19.40;53.50;;;;;;4132580;28;20428;-48
2021/08/27 08:27:51;;;;;;;13.30;12.20;;;19.40;53.60;;;;;;4134531;28;20037;-45
2021/08/27 08:29:53;;;;;;;11.90;10.65;;;19.40;53.50;;;;;;4127800;28;20145;-46
2021/08/27 08:31:55;;;;;;;10.73;9.85;;;19.40;53.60;;;;;;4132031;28;20415;-45
2021/08/27 08:33:57;;;;;;;9.75;8.95;;;19.40;53.80;;;;;;4133136;28;20034;-47
2021/08/27 08:36:00;;;;;;;9.27;8.57;;;19.40;53.90;;;;;;4116072;28;20038;-47
2021/08/27 08:38:02;;;;;;;8.48;7.78;;;19.40;54.00;;;;;;4131197;28;20030;-48
2021/08/27 08:40:05;;;;;;;8.35;7.65;;;19.40;54.00;;;;;;4127291;28;20116;-47
2021/08/27 08:42:07;;;;;;;7.25;6.65;;;19.40;54.00;;;;;;4130344;28;20513;-47
2021/08/27 08:44:09;;;;;;;6.63;6.00;;;19.30;53.90;;;;;;4130203;28;20030;-45
2021/08/27 08:46:12;;;;;;;6.75;6.15;;;19.40;54.00;;;;;;4130835;28;20353;-47
2021/08/27 08:48:18;;;;;;;5.90;5.40;;;19.30;53.90;;;;;;4130474;28;20057;-46
2021/08/27 08:50:21;;;;;;;5.25;4.75;;;19.40;53.90;;;;;;4132059;28;20052;-48
2021/08/27 08:52:25;;;;;;;5.20;4.70;;;19.30;53.90;;;;;;4129647;28;20445;-48
2021/08/27 08:54:28;;;;;;;5.10;4.18;;;19.30;54.00;;;;;;4128652;28;20040;-48
2021/08/27 08:56:30;;;;;;;4.60;4.20;;;19.30;54.00;;;;;;4131846;28;20552;-49
2021/08/27 08:58:33;;;;;;;4.30;3.90;;;19.30;54.00;;;;;;4130001;28;20059;-53
2021/08/27 09:00:38;;;;;;;4.00;3.60;;;19.30;54.00;;;;;;4130041;28;20461;-45
2021/08/27 09:02:40;;;;;;;3.88;3.47;;;19.30;54.10;;;;;;4126601;28;20442;-46
2021/08/27 09:04:42;;;;;;;4.13;3.55;;;19.30;54.10;;;;;;4132285;28;20077;-47
2021/08/27 09:06:45;;;;;;;3.30;3.00;;;19.30;54.10;;;;;;4129873;28;20576;-45
2021/08/27 09:08:52;;;;;;;3.60;3.10;;;19.30;54.10;;;;;;4131483;28;20108;-47
2021/08/27 09:10:54;;;;;;;4.80;2.78;;;19.30;54.10;;;;;;4130949;28;20030;-50
2021/08/27 09:13:06;;;;;;;3.25;2.83;;;19.30;54.20;;;;;;4131544;28;20041;-50
2021/08/27 09:15:11;;;;;;;2.73;2.50;;;19.30;54.10;;;;;;4129537;28;20101;-47
2021/08/27 09:17:13;;;;;;;2.80;2.50;;;19.30;54.20;;;;;;4132103;28;20428;-43
2021/08/27 09:19:16;;;;;;;2.35;2.10;;;19.30;54.30;;;;;;4131739;28;20113;-46
2021/08/27 09:21:35;;;;;;;4.38;2.42;;;19.30;54.00;;;;;;4127207;28;20029;-45
2021/08/27 09:23:37;;;;;;;3.05;2.03;;;19.60;53.90;;;;;;4131633;28;20030;-50
